Sanatoga, Pennsylvania
Current Conditions -  °F | °C
As of 11:54 PM on Friday 24 Oct 2014 (Local Time) from KPTW Reporting Station
Clear Clear  
Wind Chill: 51°   Ceiling: Unl
Heat Index: 51°   Visibility: 10mi
Dew Point: 36°   Wind: 3mph
Humidity: 56%   Direction: 300°WNW
Pressure: 29.9"   Gusts: NA
Location:  40.2616°N, 75.6182°W
Report Text: KPTW 250354Z AUTO 30003KT 10SM CLR 11/02 A2990 RMK AO2 SLP122 T01060022
Loading
Personal Weather Stations






























Interactive Weather Map
Tropical Storm Tracking
New forecast layout! Learn more

10-Day Weather Forecast

Advertisements
Track Severe Weather on mobile